Time;durP1;ratioP1;P1;durP2;ratioP2;P2;SDS_P1;SDS_P2;PMS_P1;PMS_P2;Temp;Humidity;BMP_temperature;BMP_pressure;BME280_temperature;BME280_humidity;BME280_pressure;Samples;Min_cycle;Max_cycle;Signal;HPM_P1;HPM_P2
2022/10/31 00:01:32;;;;;;;18.42;7.13;;;;;;;;;;4917279;29;20047;-73
2022/10/31 00:03:58;;;;;;;18.23;8.13;;;;;;;;;;4917282;29;20048;-73
2022/10/31 00:06:25;;;;;;;24.80;8.32;;;;;;;;;;4918826;29;20523;-73
2022/10/31 00:08:58;;;;;;;19.40;8.02;;;;;;;;;;4919081;29;20496;-73
2022/10/31 00:11:24;;;;;;;26.63;7.80;;;;;;;;;;4917512;29;20055;-73
2022/10/31 00:13:50;;;;;;;16.48;7.78;;;;;;;;;;4918238;29;20044;-73
2022/10/31 00:16:18;;;;;;;20.02;7.93;;;;;;;;;;4918718;29;20032;-73
2022/10/31 00:18:44;;;;;;;26.83;8.27;;;;;;;;;;4919109;29;20559;-73
2022/10/31 00:21:10;;;;;;;17.45;7.80;;;;;;;;;;4918294;29;20515;-73
2022/10/31 00:23:36;;;;;;;23.85;8.13;;;;;;;;;;4918268;29;20488;-73
2022/10/31 00:26:03;;;;;;;19.98;8.13;;;;;;;;;;4918305;29;20543;-73
2022/10/31 00:28:30;;;;;;;22.08;8.45;;;;;;;;;;4918663;29;20079;-73
2022/10/31 00:31:00;;;;;;;26.98;8.63;;;;;;;;;;4918917;29;20048;-73
2022/10/31 00:33:26;;;;;;;25.98;9.05;;;;;;;;;;4918819;29;20096;-73
2022/10/31 00:35:52;;;;;;;16.38;8.13;;;;;;;;;;4917714;29;20040;-73
2022/10/31 00:38:18;;;;;;;26.85;8.23;;;;;;;;;;4918404;29;20048;-73
2022/10/31 00:40:45;;;;;;;22.77;8.45;;;;;;;;;;4917694;29;20066;-74
2022/10/31 00:43:11;;;;;;;20.52;7.75;;;;;;;;;;4918672;29;20120;-73
2022/10/31 00:45:37;;;;;;;21.55;8.32;;;;;;;;;;4918414;29;20075;-73
2022/10/31 00:48:03;;;;;;;14.95;7.30;;;;;;;;;;4918591;29;20040;-74
2022/10/31 00:50:29;;;;;;;19.77;8.35;;;;;;;;;;4918615;29;20052;-73
2022/10/31 00:52:56;;;;;;;22.48;8.32;;;;;;;;;;4918726;29;20051;-74
2022/10/31 00:55:22;;;;;;;24.83;8.32;;;;;;;;;;4917996;29;20086;-73
2022/10/31 00:57:48;;;;;;;22.05;7.80;;;;;;;;;;4918513;29;20066;-73
2022/10/31 01:00:15;;;;;;;20.67;8.30;;;;;;;;;;4918189;29;20059;-73
2022/10/31 01:02:41;;;;;;;19.10;8.00;;;;;;;;;;4918724;29;20492;-73
2022/10/31 01:05:07;;;;;;;28.65;9.07;;;;;;;;;;4918141;29;20048;-73
2022/10/31 01:07:36;;;;;;;24.75;8.00;;;;;;;;;;4918153;29;20483;-73
2022/10/31 01:10:02;;;;;;;28.10;8.73;;;;;;;;;;4918353;29;20079;-73
2022/10/31 01:12:29;;;;;;;22.10;8.85;;;;;;;;;;4917453;29;20044;-74
2022/10/31 01:14:55;;;;;;;23.42;8.02;;;;;;;;;;4918088;29;20052;-73
2022/10/31 01:17:21;;;;;;;24.02;9.20;;;;;;;;;;4917944;29;20075;-73
2022/10/31 01:19:47;;;;;;;24.42;8.77;;;;;;;;;;4917812;29;20063;-73
2022/10/31 01:22:13;;;;;;;25.73;8.27;;;;;;;;;;4917606;29;20040;-73
2022/10/31 01:24:39;;;;;;;22.35;7.75;;;;;;;;;;4916841;29;20048;-73
2022/10/31 01:27:05;;;;;;;18.73;7.13;;;;;;;;;;4917378;29;20079;-74
2022/10/31 01:29:31;;;;;;;20.17;7.55;;;;;;;;;;4916990;29;20078;-73
2022/10/31 01:31:57;;;;;;;20.45;7.88;;;;;;;;;;4915957;29;20071;-73
2022/10/31 01:34:24;;;;;;;20.55;7.22;;;;;;;;;;4916232;29;20052;-73
2022/10/31 01:36:51;;;;;;;30.13;7.95;;;;;;;;;;4917451;29;20624;-73
2022/10/31 01:39:19;;;;;;;20.58;7.18;;;;;;;;;;4917157;29;20051;-73
2022/10/31 01:41:46;;;;;;;21.92;7.38;;;;;;;;;;4918212;29;20211;-73
2022/10/31 01:44:15;;;;;;;18.20;6.63;;;;;;;;;;4918058;29;20051;-73
2022/10/31 01:46:41;;;;;;;30.50;7.43;;;;;;;;;;4918265;29;20060;-73
2022/10/31 01:49:34;;;;;;;21.85;8.43;;;;;;;;;;4921695;29;20048;-73
2022/10/31 01:52:05;;;;;;;22.52;7.45;;;;;;;;;;4906212;29;20059;-73
2022/10/31 01:54:34;;;;;;;18.98;7.25;;;;;;;;;;4921178;29;20044;-73
2022/10/31 01:57:02;;;;;;;22.60;8.65;;;;;;;;;;4921158;29;20044;-73
2022/10/31 01:59:30;;;;;;;23.00;7.40;;;;;;;;;;4921673;29;20130;-73
2022/10/31 02:01:56;;;;;;;19.38;7.13;;;;;;;;;;4921323;29;20047;-73
2022/10/31 02:04:23;;;;;;;22.42;8.13;;;;;;;;;;4921278;29;20115;-73
2022/10/31 02:06:59;;;;;;;19.73;7.78;;;;;;;;;;4921002;29;20492;-73
2022/10/31 02:09:26;;;;;;;20.20;7.30;;;;;;;;;;4921177;29;20520;-73
2022/10/31 02:11:54;;;;;;;22.35;7.68;;;;;;;;;;4921108;29;20071;-73
2022/10/31 02:14:22;;;;;;;23.42;7.30;;;;;;;;;;4921127;29;20054;-73
2022/10/31 02:16:48;;;;;;;21.00;7.60;;;;;;;;;;4921095;29;20123;-73
2022/10/31 02:19:17;;;;;;;24.25;8.20;;;;;;;;;;4920949;29;20055;-73
2022/10/31 02:22:06;;;;;;;17.52;8.20;;;;;;;;;;4921037;29;20040;-73
2022/10/31 02:24:32;;;;;;;21.35;7.78;;;;;;;;;;4915697;29;20048;-73
2022/10/31 02:27:02;;;;;;;22.45;7.47;;;;;;;;;;4920900;29;20050;-73
2022/10/31 02:30:06;;;;;;;21.67;7.63;;;;;;;;;;4921059;29;20126;-73
2022/10/31 02:32:32;;;;;;;30.65;8.13;;;;;;;;;;4881035;29;20037;-73
2022/10/31 02:35:03;;;;;;;20.10;8.13;;;;;;;;;;4880706;29;20040;-73
2022/10/31 02:37:41;;;;;;;20.10;7.20;;;;;;;;;;4900668;29;20047;-73
2022/10/31 02:40:17;;;;;;;26.00;7.25;;;;;;;;;;4920115;29;20571;-73
2022/10/31 02:43:01;;;;;;;29.17;8.00;;;;;;;;;;4921523;29;20131;-74
2022/10/31 02:45:34;;;;;;;18.10;7.50;;;;;;;;;;4920436;29;20096;-73
2022/10/31 02:48:03;;;;;;;25.05;7.88;;;;;;;;;;4920510;29;20072;-73
2022/10/31 02:50:31;;;;;;;27.15;8.45;;;;;;;;;;4920523;29;20080;-74
2022/10/31 02:52:57;;;;;;;22.85;8.00;;;;;;;;;;4920505;29;20036;-73
2022/10/31 02:55:23;;;;;;;19.27;6.75;;;;;;;;;;4919988;29;20048;-73
2022/10/31 02:57:50;;;;;;;26.50;7.65;;;;;;;;;;4919909;29;20047;-73
2022/10/31 03:00:16;;;;;;;16.40;6.63;;;;;;;;;;4919522;29;20385;-73
2022/10/31 03:02:51;;;;;;;19.33;7.70;;;;;;;;;;4920556;29;20075;-73
2022/10/31 03:05:20;;;;;;;15.70;6.55;;;;;;;;;;4920338;29;20044;-73
2022/10/31 03:08:07;;;;;;;31.45;8.23;;;;;;;;;;4919879;29;20043;-73
2022/10/31 03:10:33;;;;;;;16.83;6.78;;;;;;;;;;4919814;29;20110;-73
2022/10/31 03:13:07;;;;;;;15.93;6.88;;;;;;;;;;4920072;29;20483;-73
2022/10/31 03:15:35;;;;;;;17.08;6.80;;;;;;;;;;4920165;29;20092;-73
2022/10/31 03:18:10;;;;;;;19.40;7.93;;;;;;;;;;4920101;29;20040;-73
2022/10/31 03:20:48;;;;;;;17.10;6.75;;;;;;;;;;4919915;29;20056;-73
2022/10/31 03:23:16;;;;;;;20.02;7.30;;;;;;;;;;4919566;29;20048;-73
2022/10/31 03:25:43;;;;;;;20.63;7.25;;;;;;;;;;4919682;29;20066;-73
2022/10/31 03:28:10;;;;;;;29.10;7.43;;;;;;;;;;4919524;29;20130;-73
2022/10/31 03:30:38;;;;;;;23.25;8.10;;;;;;;;;;4919485;29;20503;-73
2022/10/31 03:33:08;;;;;;;15.20;7.85;;;;;;;;;;4919701;29;20040;-73
2022/10/31 03:35:36;;;;;;;24.15;8.05;;;;;;;;;;4919521;29;20048;-73
2022/10/31 03:38:02;;;;;;;24.70;8.50;;;;;;;;;;4919345;29;20040;-73
2022/10/31 03:40:30;;;;;;;27.65;8.20;;;;;;;;;;4919370;29;20496;-73
2022/10/31 03:43:00;;;;;;;21.05;7.75;;;;;;;;;;4919621;29;20107;-73
2022/10/31 03:45:28;;;;;;;21.85;7.78;;;;;;;;;;4919203;29;20032;-73
2022/10/31 03:47:55;;;;;;;17.70;6.93;;;;;;;;;;4919062;29;20044;-73
2022/10/31 03:50:22;;;;;;;21.42;7.28;;;;;;;;;;4919213;29;20052;-73
2022/10/31 03:53:06;;;;;;;20.25;7.35;;;;;;;;;;4919473;29;20044;-73
2022/10/31 03:55:39;;;;;;;25.58;8.38;;;;;;;;;;4918849;29;20072;-73
2022/10/31 03:58:08;;;;;;;25.25;7.75;;;;;;;;;;4919306;29;20056;-73
2022/10/31 04:00:35;;;;;;;21.25;8.23;;;;;;;;;;4919003;29;20052;-73
2022/10/31 04:03:07;;;;;;;18.85;7.70;;;;;;;;;;4919442;29;20071;-73
2022/10/31 04:05:34;;;;;;;24.13;7.60;;;;;;;;;;4919115;29;20040;-73
2022/10/31 04:08:01;;;;;;;26.10;7.28;;;;;;;;;;4919090;29;20504;-73
2022/10/31 04:10:28;;;;;;;17.85;6.60;;;;;;;;;;4917750;29;20048;-73
2022/10/31 04:13:01;;;;;;;27.35;8.50;;;;;;;;;;4918716;29;20048;-73
2022/10/31 04:15:28;;;;;;;22.17;8.02;;;;;;;;;;4919053;29;20044;-73
2022/10/31 04:17:56;;;;;;;23.35;7.50;;;;;;;;;;4919204;29;20083;-73
2022/10/31 04:20:32;;;;;;;17.60;7.45;;;;;;;;;;4918842;29;20059;-73
2022/10/31 04:22:59;;;;;;;17.38;7.32;;;;;;;;;;4919429;29;20080;-73
2022/10/31 04:25:25;;;;;;;24.40;8.00;;;;;;;;;;4918729;29;20075;-73
2022/10/31 04:27:51;;;;;;;18.23;8.30;;;;;;;;;;4918558;29;20040;-73
2022/10/31 04:30:18;;;;;;;17.80;6.93;;;;;;;;;;4918497;29;20154;-73
2022/10/31 04:32:44;;;;;;;20.92;7.50;;;;;;;;;;4918380;29;20043;-73
2022/10/31 04:35:10;;;;;;;24.13;7.80;;;;;;;;;;4918709;29;20040;-73
2022/10/31 04:37:36;;;;;;;17.48;7.80;;;;;;;;;;4918709;29;20070;-73
2022/10/31 04:40:03;;;;;;;21.48;8.40;;;;;;;;;;4917912;29;20464;-73
2022/10/31 04:42:32;;;;;;;22.23;7.70;;;;;;;;;;4917717;29;20059;-73
2022/10/31 04:44:58;;;;;;;17.60;7.40;;;;;;;;;;4918218;29;20043;-73
2022/10/31 04:47:24;;;;;;;21.23;7.70;;;;;;;;;;4918584;29;20048;-73
2022/10/31 04:49:50;;;;;;;19.58;7.70;;;;;;;;;;4918539;29;20519;-73
2022/10/31 04:52:16;;;;;;;22.92;7.60;;;;;;;;;;4917964;29;20074;-73
2022/10/31 04:54:42;;;;;;;19.42;7.15;;;;;;;;;;4918192;29;20055;-73
2022/10/31 04:57:09;;;;;;;17.13;7.30;;;;;;;;;;4918498;29;20047;-73
2022/10/31 04:59:35;;;;;;;24.13;8.25;;;;;;;;;;4917920;29;20060;-73
2022/10/31 05:02:01;;;;;;;20.73;7.15;;;;;;;;;;4917942;29;20128;-73
2022/10/31 05:04:27;;;;;;;23.92;7.25;;;;;;;;;;4917864;29;20050;-73
2022/10/31 05:06:53;;;;;;;23.40;7.88;;;;;;;;;;4918253;29;20051;-73
2022/10/31 05:09:19;;;;;;;23.25;7.72;;;;;;;;;;4917950;29;20077;-73
2022/10/31 05:11:45;;;;;;;24.10;7.50;;;;;;;;;;4918226;29;20054;-73
2022/10/31 05:14:11;;;;;;;21.92;8.07;;;;;;;;;;4918445;29;20063;-73
2022/10/31 05:16:37;;;;;;;18.95;8.13;;;;;;;;;;4918052;29;20480;-73
2022/10/31 05:19:03;;;;;;;21.02;6.93;;;;;;;;;;4917866;29;20055;-73
2022/10/31 05:21:30;;;;;;;16.02;7.40;;;;;;;;;;4919206;29;20044;-73
2022/10/31 05:23:56;;;;;;;21.50;8.13;;;;;;;;;;4921735;29;20054;-73
2022/10/31 05:26:22;;;;;;;20.23;7.53;;;;;;;;;;4921529;29;20039;-73
2022/10/31 05:28:48;;;;;;;26.08;8.10;;;;;;;;;;4921928;29;20550;-73
2022/10/31 05:31:14;;;;;;;22.55;8.32;;;;;;;;;;4921622;29;20068;-73
2022/10/31 05:33:40;;;;;;;19.80;7.68;;;;;;;;;;4921532;29;20068;-73
2022/10/31 05:36:06;;;;;;;20.60;7.68;;;;;;;;;;4921212;29;20126;-73
2022/10/31 05:38:33;;;;;;;25.45;7.63;;;;;;;;;;4921086;29;20051;-73
2022/10/31 05:41:02;;;;;;;24.55;8.48;;;;;;;;;;4920910;29;20052;-73
2022/10/31 05:43:28;;;;;;;20.02;7.88;;;;;;;;;;4922096;29;20046;-73
2022/10/31 05:45:55;;;;;;;16.58;7.00;;;;;;;;;;4921558;29;20040;-73
2022/10/31 05:48:21;;;;;;;22.95;7.95;;;;;;;;;;4921871;29;20048;-73
2022/10/31 05:50:48;;;;;;;20.05;7.50;;;;;;;;;;4921546;29;20048;-73
2022/10/31 05:53:14;;;;;;;17.58;7.72;;;;;;;;;;4921263;29;20055;-73
2022/10/31 05:55:41;;;;;;;18.98;8.02;;;;;;;;;;4921041;29;20044;-73
2022/10/31 05:58:07;;;;;;;19.88;7.75;;;;;;;;;;4921417;29;20107;-73
2022/10/31 06:00:34;;;;;;;15.80;7.38;;;;;;;;;;4921158;29;20055;-73
2022/10/31 06:03:04;;;;;;;21.77;8.02;;;;;;;;;;4921696;29;20052;-73
2022/10/31 06:05:31;;;;;;;22.80;7.93;;;;;;;;;;4921053;29;20047;-73
2022/10/31 06:07:57;;;;;;;22.10;7.95;;;;;;;;;;4921251;29;20040;-73
2022/10/31 06:10:23;;;;;;;24.83;8.13;;;;;;;;;;4920820;29;20436;-73
2022/10/31 06:12:49;;;;;;;24.20;9.45;;;;;;;;;;4928623;29;20376;-73
2022/10/31 06:15:16;;;;;;;27.88;8.50;;;;;;;;;;4939826;29;20047;-73
2022/10/31 06:17:42;;;;;;;20.23;7.60;;;;;;;;;;4939832;29;20531;-74
2022/10/31 06:20:08;;;;;;;26.35;8.02;;;;;;;;;;4940167;29;20051;-73
2022/10/31 06:22:35;;;;;;;23.00;7.88;;;;;;;;;;4939972;29;20098;-73
2022/10/31 06:25:01;;;;;;;19.23;7.43;;;;;;;;;;4939534;29;20035;-73
2022/10/31 06:27:27;;;;;;;25.90;7.78;;;;;;;;;;4939626;29;20043;-73
2022/10/31 06:29:53;;;;;;;21.67;7.43;;;;;;;;;;4939516;29;20052;-73
2022/10/31 06:32:20;;;;;;;23.63;7.93;;;;;;;;;;4939344;29;20118;-73
2022/10/31 06:34:48;;;;;;;20.50;7.72;;;;;;;;;;4939354;29;20051;-73
2022/10/31 06:37:15;;;;;;;23.67;8.20;;;;;;;;;;4923553;29;20052;-73
2022/10/31 06:39:41;;;;;;;22.35;7.75;;;;;;;;;;4920543;29;20044;-73
2022/10/31 06:42:07;;;;;;;18.27;7.93;;;;;;;;;;4920747;29;20060;-73
2022/10/31 06:44:33;;;;;;;21.77;7.00;;;;;;;;;;4920377;29;20505;-73
2022/10/31 06:47:00;;;;;;;24.20;7.57;;;;;;;;;;4920312;29;20040;-73
2022/10/31 06:49:26;;;;;;;22.20;7.53;;;;;;;;;;4920508;29;20108;-73
2022/10/31 06:51:52;;;;;;;24.40;8.43;;;;;;;;;;4920410;29;20147;-73
2022/10/31 06:54:18;;;;;;;20.50;8.35;;;;;;;;;;4919952;29;20138;-73
2022/10/31 06:56:47;;;;;;;21.75;8.35;;;;;;;;;;4920410;29;20044;-73
2022/10/31 06:59:13;;;;;;;19.40;8.45;;;;;;;;;;4920459;29;20060;-73
2022/10/31 07:01:39;;;;;;;29.92;8.63;;;;;;;;;;4920257;29;20079;-73
2022/10/31 07:04:05;;;;;;;26.90;8.80;;;;;;;;;;4920044;29;20547;-73
2022/10/31 07:06:31;;;;;;;19.00;7.63;;;;;;;;;;4920197;29;20522;-73
2022/10/31 07:08:57;;;;;;;20.48;8.10;;;;;;;;;;4920391;29;20044;-73
2022/10/31 07:11:23;;;;;;;23.67;8.55;;;;;;;;;;4919441;29;20036;-74
2022/10/31 07:13:49;;;;;;;26.17;7.82;;;;;;;;;;4919782;29;20080;-74
2022/10/31 07:16:15;;;;;;;22.13;7.97;;;;;;;;;;4919848;29;20183;-74
2022/10/31 07:18:41;;;;;;;17.83;7.13;;;;;;;;;;4918474;29;20471;-73
2022/10/31 07:21:08;;;;;;;18.63;7.07;;;;;;;;;;4918756;29;20063;-73
2022/10/31 07:23:34;;;;;;;21.00;8.40;;;;;;;;;;4920061;29;20062;-74
2022/10/31 07:26:00;;;;;;;21.05;7.55;;;;;;;;;;4918928;29;20131;-73
2022/10/31 07:28:27;;;;;;;41.33;19.77;;;;;;;;;;4919868;29;20063;-74
2022/10/31 07:30:54;;;;;;;48.95;23.23;;;;;;;;;;4918441;29;20044;-73
2022/10/31 07:33:20;;;;;;;33.90;15.38;;;;;;;;;;4918162;29;20412;-73
2022/10/31 07:35:46;;;;;;;34.40;15.27;;;;;;;;;;4918914;29;20047;-74
2022/10/31 07:38:13;;;;;;;30.17;12.05;;;;;;;;;;4918518;29;20500;-74
2022/10/31 07:40:39;;;;;;;26.50;10.88;;;;;;;;;;4918618;29;20040;-74
2022/10/31 07:43:06;;;;;;;20.13;10.40;;;;;;;;;;4918962;29;20044;-73
2022/10/31 07:45:32;;;;;;;20.00;7.50;;;;;;;;;;4919506;29;20048;-73
2022/10/31 07:47:58;;;;;;;23.58;8.57;;;;;;;;;;4918565;29;20040;-73
2022/10/31 07:50:26;;;;;;;22.15;9.63;;;;;;;;;;4917329;29;20051;-72
2022/10/31 07:53:01;;;;;;;27.60;9.07;;;;;;;;;;4919359;29;20052;-72
2022/10/31 07:55:28;;;;;;;26.10;9.20;;;;;;;;;;4918179;29;20043;-72
2022/10/31 07:58:01;;;;;;;19.38;7.30;;;;;;;;;;4918198;29;20048;-72
2022/10/31 08:00:28;;;;;;;26.30;9.00;;;;;;;;;;4918580;29;20048;-72
2022/10/31 08:03:01;;;;;;;21.60;8.05;;;;;;;;;;4918140;29;20539;-72
2022/10/31 08:05:27;;;;;;;24.52;7.53;;;;;;;;;;4918422;29;20072;-72
2022/10/31 08:07:53;;;;;;;20.67;7.78;;;;;;;;;;4917868;29;20526;-72
2022/10/31 08:10:19;;;;;;;21.23;9.02;;;;;;;;;;4918659;29;20500;-72
2022/10/31 08:12:45;;;;;;;18.42;7.25;;;;;;;;;;4918972;29;20044;-72
2022/10/31 08:15:12;;;;;;;24.60;8.18;;;;;;;;;;4918427;29;20047;-72
2022/10/31 08:17:38;;;;;;;24.83;9.38;;;;;;;;;;4919089;29;20500;-72
2022/10/31 08:20:06;;;;;;;23.17;8.32;;;;;;;;;;4918423;29;20048;-72
2022/10/31 08:22:32;;;;;;;28.95;10.70;;;;;;;;;;4919223;29;20514;-72
2022/10/31 08:24:58;;;;;;;32.20;12.75;;;;;;;;;;4917796;29;20530;-72
2022/10/31 08:27:24;;;;;;;40.15;18.35;;;;;;;;;;4917559;29;20052;-72
2022/10/31 08:29:50;;;;;;;49.45;29.08;;;;;;;;;;4918402;29;20083;-73
2022/10/31 08:32:16;;;;;;;49.47;29.75;;;;;;;;;;4918501;29;20048;-72
2022/10/31 08:34:42;;;;;;;35.88;12.65;;;;;;;;;;4918192;29;20529;-73
2022/10/31 08:37:09;;;;;;;23.40;8.15;;;;;;;;;;4917718;29;20499;-73
2022/10/31 08:39:35;;;;;;;25.20;8.52;;;;;;;;;;4918952;29;20054;-72
2022/10/31 08:42:01;;;;;;;25.58;9.73;;;;;;;;;;4918038;29;20052;-73
2022/10/31 08:44:27;;;;;;;21.15;8.45;;;;;;;;;;4917639;29;20044;-72
2022/10/31 08:46:53;;;;;;;32.85;12.32;;;;;;;;;;4917577;29;20036;-73
2022/10/31 08:49:19;;;;;;;23.30;10.55;;;;;;;;;;4915885;29;20083;-73
2022/10/31 08:51:48;;;;;;;27.25;12.07;;;;;;;;;;4916851;29;20051;-72
2022/10/31 08:54:14;;;;;;;29.48;14.73;;;;;;;;;;4916338;29;20472;-72
2022/10/31 08:56:40;;;;;;;24.98;10.45;;;;;;;;;;4921345;29;20048;-72
2022/10/31 08:59:06;;;;;;;31.75;12.07;;;;;;;;;;4923350;29;20052;-72
2022/10/31 09:01:32;;;;;;;18.58;8.63;;;;;;;;;;4923815;29;20036;-72
2022/10/31 09:03:58;;;;;;;24.27;9.45;;;;;;;;;;4924495;29;20040;-72
2022/10/31 09:06:25;;;;;;;23.50;7.43;;;;;;;;;;4923260;29;20070;-71
2022/10/31 09:08:51;;;;;;;22.30;8.73;;;;;;;;;;4924187;29;20134;-73
2022/10/31 09:11:17;;;;;;;22.33;8.48;;;;;;;;;;4924108;29;20046;-72
2022/10/31 09:13:43;;;;;;;22.75;8.25;;;;;;;;;;4924455;29;20048;-72
2022/10/31 09:16:09;;;;;;;26.42;8.02;;;;;;;;;;4923129;29;20048;-73
2022/10/31 09:18:35;;;;;;;24.92;8.48;;;;;;;;;;4924376;29;20047;-73
2022/10/31 09:21:02;;;;;;;24.33;8.25;;;;;;;;;;4923873;29;20100;-73
2022/10/31 09:23:28;;;;;;;23.88;10.23;;;;;;;;;;4924002;29;20044;-72
2022/10/31 09:25:54;;;;;;;26.15;9.18;;;;;;;;;;4922684;29;20053;-72
2022/10/31 09:28:22;;;;;;;30.60;11.35;;;;;;;;;;4924273;29;20118;-73
2022/10/31 09:30:50;;;;;;;34.05;14.02;;;;;;;;;;4923309;29;20044;-73
2022/10/31 09:33:16;;;;;;;28.25;12.90;;;;;;;;;;4919699;29;20052;-73
2022/10/31 09:35:42;;;;;;;38.88;17.88;;;;;;;;;;4918952;29;20036;-72
2022/10/31 09:38:10;;;;;;;39.00;19.25;;;;;;;;;;4923444;29;20526;-72
2022/10/31 09:40:36;;;;;;;20.10;8.13;;;;;;;;;;4930615;29;20114;-73
2022/10/31 09:43:03;;;;;;;22.42;11.00;;;;;;;;;;4923108;29;20047;-72
2022/10/31 09:45:38;;;;;;;31.63;13.77;;;;;;;;;;4938970;29;20046;-73
2022/10/31 09:48:08;;;;;;;27.08;9.27;;;;;;;;;;4921369;29;20044;-72
2022/10/31 09:50:41;;;;;;;17.23;7.40;;;;;;;;;;4934093;29;20047;-72
2022/10/31 09:53:19;;;;;;;19.50;8.65;;;;;;;;;;4919998;29;20047;-73
2022/10/31 09:55:47;;;;;;;27.77;8.20;;;;;;;;;;4941973;29;20385;-73
2022/10/31 09:58:21;;;;;;;20.63;7.90;;;;;;;;;;4922780;29;20047;-73
2022/10/31 10:00:48;;;;;;;20.13;8.55;;;;;;;;;;4922927;29;20598;-73
2022/10/31 10:03:20;;;;;;;16.90;7.85;;;;;;;;;;4922588;29;20150;-73
2022/10/31 10:05:50;;;;;;;18.45;7.53;;;;;;;;;;4920211;29;20067;-73
2022/10/31 10:08:20;;;;;;;22.77;7.50;;;;;;;;;;4921033;29;20047;-73
2022/10/31 10:10:51;;;;;;;29.52;8.93;;;;;;;;;;4919561;29;20135;-71
2022/10/31 10:13:18;;;;;;;18.40;7.22;;;;;;;;;;4920144;29;20096;-73
2022/10/31 10:16:03;;;;;;;24.17;7.25;;;;;;;;;;4919856;29;20048;-73
2022/10/31 10:18:52;;;;;;;25.88;8.07;;;;;;;;;;4920616;29;20504;-72
2022/10/31 10:21:18;;;;;;;21.70;7.70;;;;;;;;;;4919433;29;20167;-73
2022/10/31 10:24:00;;;;;;;18.65;7.95;;;;;;;;;;4920058;29;20043;-72
2022/10/31 10:26:30;;;;;;;22.08;7.72;;;;;;;;;;4919194;29;20051;-72
2022/10/31 10:29:02;;;;;;;19.58;7.68;;;;;;;;;;4915154;29;20052;-72
2022/10/31 10:31:31;;;;;;;25.95;7.22;;;;;;;;;;4919911;29;20043;-72
2022/10/31 10:34:12;;;;;;;23.27;6.90;;;;;;;;;;4919620;29;20040;-72
2022/10/31 10:36:41;;;;;;;19.77;6.88;;;;;;;;;;4919066;29;20598;-72
2022/10/31 10:39:14;;;;;;;23.38;6.72;;;;;;;;;;4919735;29;20056;-72
2022/10/31 10:41:42;;;;;;;19.88;6.93;;;;;;;;;;4912500;29;20052;-72
2022/10/31 10:44:10;;;;;;;16.73;6.72;;;;;;;;;;4918427;29;20503;-73
2022/10/31 10:49:29;;;;;;;24.63;7.80;;;;;;;;;;4917517;29;20051;-73
2022/10/31 10:52:00;;;;;;;23.80;7.72;;;;;;;;;;4919448;29;20064;-73
2022/10/31 10:54:36;;;;;;;21.67;7.55;;;;;;;;;;4919020;29;20091;-73
2022/10/31 10:57:14;;;;;;;20.25;9.82;;;;;;;;;;4918404;29;20074;-73
2022/10/31 10:59:40;;;;;;;23.20;8.00;;;;;;;;;;4918349;29;20069;-72
2022/10/31 11:02:17;;;;;;;23.48;7.85;;;;;;;;;;4919020;29;20142;-72
2022/10/31 11:04:44;;;;;;;20.73;7.57;;;;;;;;;;4917980;29;20054;-72
2022/10/31 11:07:11;;;;;;;23.25;6.78;;;;;;;;;;4918697;29;20047;-72
2022/10/31 11:09:38;;;;;;;17.40;7.03;;;;;;;;;;4918605;29;20503;-72
2022/10/31 11:12:16;;;;;;;23.52;6.45;;;;;;;;;;4918928;29;20074;-72
2022/10/31 11:14:47;;;;;;;26.63;7.55;;;;;;;;;;4921451;29;20050;-72
2022/10/31 11:17:27;;;;;;;22.17;7.20;;;;;;;;;;4930565;29;20042;-72
2022/10/31 11:20:13;;;;;;;22.05;7.18;;;;;;;;;;4910183;29;20047;-72
2022/10/31 11:22:43;;;;;;;20.17;6.97;;;;;;;;;;4903279;29;20108;-73
2022/10/31 11:25:25;;;;;;;18.50;7.47;;;;;;;;;;4907530;29;20036;-72
2022/10/31 11:28:02;;;;;;;21.52;7.18;;;;;;;;;;4917368;29;20044;-72
2022/10/31 11:30:28;;;;;;;23.02;8.20;;;;;;;;;;4918762;29;20048;-71
2022/10/31 11:32:54;;;;;;;19.75;7.63;;;;;;;;;;4918131;29;20040;-71
2022/10/31 11:35:21;;;;;;;25.23;8.00;;;;;;;;;;4916858;29;20047;-72
2022/10/31 11:37:49;;;;;;;21.20;7.38;;;;;;;;;;4918060;29;20407;-73
2022/10/31 11:40:17;;;;;;;22.92;8.38;;;;;;;;;;4918091;29;20048;-72
2022/10/31 11:42:44;;;;;;;22.77;7.80;;;;;;;;;;4916875;29;20056;-72
2022/10/31 11:45:28;;;;;;;24.00;7.55;;;;;;;;;;4918426;29;20056;-72
2022/10/31 11:47:56;;;;;;;19.40;7.88;;;;;;;;;;4916736;29;20119;-72
2022/10/31 11:50:27;;;;;;;30.60;13.85;;;;;;;;;;4918072;29;20048;-72
2022/10/31 11:52:54;;;;;;;24.05;8.43;;;;;;;;;;4908352;29;20040;-72
2022/10/31 11:55:39;;;;;;;21.70;9.00;;;;;;;;;;4917503;29;20043;-72
2022/10/31 11:58:20;;;;;;;29.70;8.48;;;;;;;;;;4918248;29;20047;-72
2022/10/31 12:00:49;;;;;;;19.73;6.90;;;;;;;;;;4918724;29;20048;-72
2022/10/31 12:03:24;;;;;;;20.52;7.45;;;;;;;;;;4917569;29;20052;-72
2022/10/31 12:06:20;;;;;;;17.70;7.10;;;;;;;;;;4917634;29;20516;-72
2022/10/31 12:08:46;;;;;;;23.67;8.00;;;;;;;;;;4909435;29;20047;-72
2022/10/31 12:11:18;;;;;;;21.80;7.28;;;;;;;;;;4915042;29;20563;-73
2022/10/31 12:13:44;;;;;;;22.85;7.90;;;;;;;;;;4914292;29;20122;-73
2022/10/31 12:16:20;;;;;;;25.17;7.53;;;;;;;;;;4918270;29;20051;-73
2022/10/31 12:19:12;;;;;;;16.40;7.85;;;;;;;;;;4919256;29;20503;-72
2022/10/31 12:21:41;;;;;;;22.00;6.93;;;;;;;;;;4909692;29;20055;-73
2022/10/31 12:24:26;;;;;;;22.52;8.77;;;;;;;;;;4917554;29;20483;-73
2022/10/31 12:26:52;;;;;;;21.95;8.30;;;;;;;;;;4917919;29;20480;-74
2022/10/31 12:29:34;;;;;;;27.88;8.85;;;;;;;;;;4917930;29;20048;-71
2022/10/31 12:32:06;;;;;;;19.80;6.97;;;;;;;;;;4916846;29;20388;-72
2022/10/31 12:34:35;;;;;;;23.67;7.72;;;;;;;;;;4918318;29;20040;-72
2022/10/31 12:37:08;;;;;;;24.55;7.38;;;;;;;;;;4917672;29;20646;-72
2022/10/31 12:39:37;;;;;;;25.70;10.48;;;;;;;;;;4917746;29;20055;-71
2022/10/31 12:42:22;;;;;;;18.08;7.22;;;;;;;;;;4917131;29;20048;-70
2022/10/31 12:44:59;;;;;;;20.98;7.32;;;;;;;;;;4917579;29;20044;-71
2022/10/31 12:47:25;;;;;;;17.98;7.07;;;;;;;;;;4917141;29;20078;-72
2022/10/31 12:49:57;;;;;;;19.20;7.22;;;;;;;;;;4917588;29;20523;-70
2022/10/31 12:52:50;;;;;;;25.52;7.25;;;;;;;;;;4916872;29;20051;-71
2022/10/31 12:55:36;;;;;;;22.90;9.27;;;;;;;;;;4902041;29;20090;-71
2022/10/31 12:58:05;;;;;;;21.90;7.47;;;;;;;;;;4919772;29;20056;-71
2022/10/31 13:00:32;;;;;;;16.98;7.18;;;;;;;;;;4934141;29;20098;-71
2022/10/31 13:03:05;;;;;;;20.50;7.03;;;;;;;;;;4917582;29;20111;-72
2022/10/31 13:05:37;;;;;;;20.58;7.30;;;;;;;;;;4927942;29;20055;-71
2022/10/31 13:08:18;;;;;;;19.35;7.05;;;;;;;;;;4914194;29;20076;-73
2022/10/31 13:10:49;;;;;;;16.88;6.70;;;;;;;;;;4915600;29;20044;-72
2022/10/31 13:13:21;;;;;;;16.90;6.88;;;;;;;;;;4917239;29;20083;-73
2022/10/31 13:15:56;;;;;;;21.83;8.05;;;;;;;;;;4917429;29;20179;-73
2022/10/31 13:18:28;;;;;;;21.75;6.85;;;;;;;;;;4905015;29;20040;-73
2022/10/31 13:20:55;;;;;;;24.20;7.38;;;;;;;;;;4918025;29;20063;-72
2022/10/31 13:23:25;;;;;;;24.48;7.00;;;;;;;;;;4917383;29;20511;-72
2022/10/31 13:25:55;;;;;;;24.90;7.47;;;;;;;;;;4916476;29;20036;-73
2022/10/31 13:28:27;;;;;;;20.17;7.30;;;;;;;;;;4914790;29;20717;-73
2022/10/31 13:30:54;;;;;;;24.40;7.38;;;;;;;;;;4917038;29;20099;-73
2022/10/31 13:33:38;;;;;;;20.67;7.30;;;;;;;;;;4914016;29;20036;-72
2022/10/31 13:36:13;;;;;;;18.33;7.13;;;;;;;;;;4909150;29;20183;-73
2022/10/31 13:38:52;;;;;;;19.80;7.28;;;;;;;;;;4914572;29;20055;-73
2022/10/31 13:41:21;;;;;;;20.70;6.65;;;;;;;;;;4915394;29;20150;-72
2022/10/31 13:43:47;;;;;;;17.85;7.10;;;;;;;;;;4917759;29;20055;-72
2022/10/31 13:46:24;;;;;;;20.77;7.38;;;;;;;;;;4919120;29;20052;-72
2022/10/31 13:48:51;;;;;;;21.00;6.90;;;;;;;;;;4911166;29;20048;-71
2022/10/31 13:51:25;;;;;;;14.63;6.97;;;;;;;;;;4920412;29;20128;-71
2022/10/31 13:53:51;;;;;;;17.38;6.78;;;;;;;;;;4919587;29;20127;-72
2022/10/31 13:56:23;;;;;;;19.75;7.80;;;;;;;;;;4923459;29;20048;-69
2022/10/31 13:59:00;;;;;;;19.63;8.07;;;;;;;;;;4906284;29;20044;-71
2022/10/31 14:01:28;;;;;;;21.80;7.85;;;;;;;;;;4916736;29;20064;-70
2022/10/31 14:03:57;;;;;;;18.67;7.03;;;;;;;;;;4919928;29;20044;-70
2022/10/31 14:06:34;;;;;;;21.23;7.43;;;;;;;;;;4923704;29;20047;-71
2022/10/31 14:09:02;;;;;;;23.42;7.10;;;;;;;;;;4927204;29;20077;-71
2022/10/31 14:11:29;;;;;;;21.58;7.63;;;;;;;;;;4919724;29;20055;-71
2022/10/31 14:13:56;;;;;;;22.63;8.50;;;;;;;;;;4922407;29;20098;-70
2022/10/31 14:16:33;;;;;;;20.10;7.95;;;;;;;;;;4930002;29;20059;-71
2022/10/31 14:19:01;;;;;;;22.83;7.70;;;;;;;;;;4931003;29;20051;-71
2022/10/31 14:21:28;;;;;;;14.90;6.97;;;;;;;;;;4938127;29;20048;-71
2022/10/31 14:23:55;;;;;;;14.52;7.03;;;;;;;;;;4909782;29;20079;-71
2022/10/31 14:26:30;;;;;;;21.63;7.20;;;;;;;;;;4919374;29;20179;-70
2022/10/31 14:29:01;;;;;;;19.80;7.55;;;;;;;;;;4919261;29;20068;-71
2022/10/31 14:31:31;;;;;;;23.40;7.57;;;;;;;;;;4918735;29;20080;-71
2022/10/31 14:33:59;;;;;;;24.03;8.50;;;;;;;;;;4920567;29;20054;-71
2022/10/31 14:36:40;;;;;;;20.45;8.50;;;;;;;;;;4919742;29;20272;-71
2022/10/31 14:39:09;;;;;;;24.27;10.27;;;;;;;;;;4919363;29;20195;-71
2022/10/31 14:41:35;;;;;;;22.73;11.63;;;;;;;;;;4919612;29;20087;-71
2022/10/31 14:44:24;;;;;;;23.35;8.90;;;;;;;;;;4919392;29;20052;-71